Time;durP1;ratioP1;P1;durP2;ratioP2;P2;SDS_P1;SDS_P2;PMS_P1;PMS_P2;Temp;Humidity;BMP_temperature;BMP_pressure;BME280_temperature;BME280_humidity;BME280_pressure;Samples;Min_cycle;Max_cycle;Signal;HPM_P1;HPM_P2
2022/06/24 00:00:44;;;;;;;8.68;7.97;;;18.80;99.90;;;;;;5032988;28;20060;-63
2022/06/24 00:03:20;;;;;;;9.45;8.50;;;18.70;99.90;;;;;;5038683;28;20028;-63
2022/06/24 00:05:49;;;;;;;8.60;7.95;;;18.70;99.90;;;;;;5036552;28;20043;-63
2022/06/24 00:08:18;;;;;;;9.55;8.80;;;18.70;99.90;;;;;;5040927;28;20087;-63
2022/06/24 00:10:46;;;;;;;9.48;8.82;;;18.70;99.90;;;;;;5037230;28;20024;-63
2022/06/24 00:13:12;;;;;;;9.32;8.63;;;18.60;99.90;;;;;;5037613;28;20052;-63
2022/06/24 00:15:38;;;;;;;9.45;8.77;;;18.60;99.90;;;;;;5038955;28;20520;-63
2022/06/24 00:18:15;;;;;;;9.65;8.95;;;18.60;99.90;;;;;;5037613;28;20137;-63
2022/06/24 00:20:43;;;;;;;9.32;8.48;;;18.60;99.90;;;;;;5035910;28;20116;-63
2022/06/24 00:23:08;;;;;;;9.68;9.07;;;18.60;99.90;;;;;;5037362;28;20361;-64
2022/06/24 00:25:37;;;;;;;10.32;9.25;;;18.50;99.90;;;;;;5042128;28;20025;-63
2022/06/24 00:28:09;;;;;;;9.52;8.93;;;18.40;99.90;;;;;;5036045;28;21006;-63
2022/06/24 00:30:39;;;;;;;9.65;8.75;;;18.40;99.90;;;;;;5033830;28;20584;-63
2022/06/24 00:33:22;;;;;;;13.55;9.55;;;18.30;99.90;;;;;;5038055;28;20095;-63
2022/06/24 00:35:53;;;;;;;9.80;9.13;;;18.30;99.90;;;;;;5037961;28;20036;-63
2022/06/24 00:38:33;;;;;;;10.65;9.73;;;18.30;99.90;;;;;;5038881;28;20014;-63
2022/06/24 00:41:10;;;;;;;13.75;9.50;;;18.20;99.90;;;;;;5033177;28;20021;-63
2022/06/24 00:43:37;;;;;;;11.23;10.27;;;18.20;99.90;;;;;;5034228;28;20107;-63
2022/06/24 00:46:14;;;;;;;11.43;10.55;;;18.10;99.90;;;;;;5034785;28;20119;-63
2022/06/24 00:48:47;;;;;;;10.77;9.75;;;18.10;99.90;;;;;;5035314;28;20026;-63
2022/06/24 00:51:13;;;;;;;11.23;10.32;;;18.10;99.90;;;;;;5036168;28;20041;-63
2022/06/24 00:53:54;;;;;;;12.15;11.02;;;18.00;99.90;;;;;;5037861;28;20105;-63
2022/06/24 00:56:22;;;;;;;11.00;10.20;;;17.90;99.90;;;;;;5036323;28;20025;-63
2022/06/24 00:58:53;;;;;;;10.60;9.70;;;17.90;99.90;;;;;;5036919;28;20049;-63
2022/06/24 01:01:27;;;;;;;11.38;10.45;;;17.80;99.90;;;;;;5036715;28;20029;-64
2022/06/24 01:03:55;;;;;;;11.73;10.73;;;17.80;99.90;;;;;;5033809;28;20033;-63
2022/06/24 01:06:21;;;;;;;11.48;10.68;;;17.70;99.90;;;;;;5035694;28;20059;-63
2022/06/24 01:08:46;;;;;;;12.18;11.23;;;17.70;99.90;;;;;;5038333;28;20407;-63
2022/06/24 01:11:12;;;;;;;12.50;11.70;;;17.70;99.90;;;;;;5039003;28;20079;-63
2022/06/24 01:13:38;;;;;;;11.88;10.43;;;17.60;99.90;;;;;;5040513;28;20021;-63
2022/06/24 01:16:04;;;;;;;12.55;11.57;;;17.60;99.90;;;;;;5040961;28;20033;-63
2022/06/24 01:18:30;;;;;;;11.55;10.63;;;17.60;99.90;;;;;;5041819;28;20656;-63
2022/06/24 01:20:56;;;;;;;13.30;12.05;;;17.60;99.90;;;;;;5036967;28;20017;-63
2022/06/24 01:23:23;;;;;;;11.48;10.68;;;17.50;99.90;;;;;;5039109;28;20029;-63
2022/06/24 01:25:49;;;;;;;12.27;11.05;;;17.50;99.90;;;;;;5024680;28;20032;-63
2022/06/24 01:28:14;;;;;;;11.82;10.98;;;17.50;99.90;;;;;;5041170;28;20115;-63
2022/06/24 01:30:40;;;;;;;11.32;10.43;;;17.50;99.90;;;;;;5040869;28;20072;-63
2022/06/24 01:33:06;;;;;;;12.52;11.60;;;17.50;99.90;;;;;;5040319;28;20044;-63
2022/06/24 01:35:32;;;;;;;12.48;11.57;;;17.50;99.90;;;;;;5041151;28;20033;-63
2022/06/24 01:37:58;;;;;;;13.32;12.43;;;17.40;99.90;;;;;;5039704;28;20024;-63
2022/06/24 01:40:23;;;;;;;12.77;11.77;;;17.40;99.90;;;;;;5041895;28;20021;-62
2022/06/24 01:42:49;;;;;;;11.32;10.63;;;17.30;99.90;;;;;;5038487;28;20057;-63
2022/06/24 01:45:15;;;;;;;11.60;10.85;;;17.30;99.90;;;;;;5038496;28;20033;-63
2022/06/24 01:47:40;;;;;;;11.15;10.18;;;17.30;99.90;;;;;;5040400;28;20101;-63
2022/06/24 01:50:07;;;;;;;12.13;11.13;;;17.30;99.90;;;;;;5042925;28;20018;-64
2022/06/24 01:52:32;;;;;;;10.75;9.98;;;17.30;99.90;;;;;;5041342;28;20094;-63
2022/06/24 01:54:58;;;;;;;11.40;10.40;;;17.30;99.90;;;;;;5043703;28;20490;-62
2022/06/24 01:57:25;;;;;;;11.18;10.27;;;17.20;99.90;;;;;;5026880;28;21491;-63
2022/06/24 01:59:51;;;;;;;11.18;10.38;;;17.30;99.90;;;;;;5046573;28;20026;-63
2022/06/24 02:02:17;;;;;;;11.77;10.85;;;17.30;99.90;;;;;;5039974;28;20091;-63
2022/06/24 02:04:47;;;;;;;11.23;10.43;;;17.30;99.90;;;;;;5040149;28;20031;-63
2022/06/24 02:07:12;;;;;;;11.93;11.10;;;17.30;99.90;;;;;;5039387;28;20042;-63
2022/06/24 02:15:10;;;;;;;10.70;9.90;;;17.30;99.90;;;;;;5038192;28;20039;-63
2022/06/24 02:17:36;;;;;;;10.68;9.77;;;17.30;99.90;;;;;;5042433;28;20436;-63
2022/06/24 02:20:02;;;;;;;14.63;11.32;;;17.30;99.90;;;;;;5038422;28;20091;-63
2022/06/24 02:22:27;;;;;;;11.80;10.88;;;17.10;99.90;;;;;;5039493;28;20036;-61
2022/06/24 02:24:53;;;;;;;11.07;10.07;;;17.00;99.90;;;;;;5036505;28;20064;-63
2022/06/24 02:27:19;;;;;;;12.00;11.20;;;16.90;99.90;;;;;;5037060;28;20026;-62
2022/06/24 02:29:44;;;;;;;12.65;11.48;;;16.90;99.90;;;;;;5039046;28;20032;-60
2022/06/24 02:32:14;;;;;;;12.32;11.20;;;16.70;99.90;;;;;;5039455;28;20029;-64
2022/06/24 02:34:39;;;;;;;11.70;10.90;;;16.70;99.90;;;;;;5041917;28;20033;-63
2022/06/24 02:37:05;;;;;;;11.45;10.65;;;16.70;99.90;;;;;;5038386;28;20032;-63
2022/06/24 02:39:31;;;;;;;12.25;11.43;;;16.60;99.90;;;;;;5035496;28;20037;-62
2022/06/24 02:41:56;;;;;;;12.32;11.38;;;16.50;99.90;;;;;;5033322;28;20036;-63
2022/06/24 02:44:22;;;;;;;12.07;11.20;;;16.40;99.90;;;;;;5041056;28;20494;-63
2022/06/24 02:46:47;;;;;;;13.95;12.75;;;16.40;99.90;;;;;;5040815;28;20395;-63
2022/06/24 02:49:13;;;;;;;12.82;11.48;;;16.50;99.90;;;;;;5035440;28;20037;-62
2022/06/24 02:51:39;;;;;;;13.32;11.98;;;16.50;99.90;;;;;;5024985;28;20021;-63
2022/06/24 02:54:04;;;;;;;13.18;12.10;;;16.60;99.90;;;;;;5034663;28;20022;-62
2022/06/24 02:56:30;;;;;;;12.90;11.88;;;16.70;99.90;;;;;;5043512;28;20056;-63
2022/06/24 02:58:55;;;;;;;12.77;11.65;;;16.70;99.90;;;;;;5039700;28;20523;-62
2022/06/24 03:01:21;;;;;;;12.25;11.43;;;16.80;99.90;;;;;;5033505;28;20030;-63
2022/06/24 03:03:47;;;;;;;12.10;11.20;;;16.80;99.90;;;;;;5038743;28;20452;-63
2022/06/24 03:06:12;;;;;;;11.95;10.93;;;16.90;99.90;;;;;;5036363;28;20040;-62
2022/06/24 03:08:39;;;;;;;12.07;10.95;;;16.90;99.90;;;;;;5036557;28;20075;-63
2022/06/24 03:11:05;;;;;;;12.25;11.45;;;17.00;99.90;;;;;;5040376;28;20367;-67
2022/06/24 03:13:31;;;;;;;12.25;11.18;;;17.10;99.90;;;;;;5037998;28;20075;-63
2022/06/24 03:15:57;;;;;;;11.40;10.32;;;17.20;99.90;;;;;;5040026;28;20576;-63
2022/06/24 03:18:24;;;;;;;12.45;11.00;;;17.30;99.90;;;;;;5037038;28;20060;-63
2022/06/24 03:20:50;;;;;;;12.57;10.02;;;17.40;99.90;;;;;;5038714;28;20042;-63
2022/06/24 03:23:16;;;;;;;10.18;9.40;;;17.50;99.90;;;;;;5031754;28;20478;-63
2022/06/24 03:25:42;;;;;;;10.75;9.95;;;17.60;99.90;;;;;;5039849;28;20510;-63
2022/06/24 03:28:08;;;;;;;9.63;8.90;;;17.60;99.90;;;;;;5039745;28;20032;-62
2022/06/24 03:30:33;;;;;;;9.93;9.15;;;17.70;99.90;;;;;;5039751;28;20029;-63
2022/06/24 03:33:00;;;;;;;9.93;9.13;;;17.70;99.90;;;;;;5037897;28;20216;-63
2022/06/24 03:35:27;;;;;;;11.30;9.38;;;17.70;99.90;;;;;;5019118;28;20029;-63
2022/06/24 03:37:52;;;;;;;10.23;9.52;;;17.70;99.90;;;;;;5035852;28;20018;-62
2022/06/24 03:40:18;;;;;;;9.95;9.00;;;17.70;99.90;;;;;;5035667;28;20026;-62
2022/06/24 03:42:44;;;;;;;10.63;9.82;;;17.70;99.90;;;;;;5037620;28;20070;-63
2022/06/24 03:45:10;;;;;;;12.77;9.43;;;17.70;99.90;;;;;;5033744;28;20031;-63
2022/06/24 03:47:35;;;;;;;10.50;9.57;;;17.70;99.90;;;;;;5038410;28;20028;-63
2022/06/24 03:50:01;;;;;;;9.90;9.10;;;17.80;99.90;;;;;;5037989;28;20060;-63
2022/06/24 03:52:27;;;;;;;10.18;9.27;;;17.80;99.90;;;;;;5035261;28;20032;-63
2022/06/24 03:54:52;;;;;;;9.48;8.77;;;17.80;99.90;;;;;;5032416;28;20156;-62
2022/06/24 03:57:18;;;;;;;8.80;8.10;;;17.80;99.90;;;;;;5036214;28;20037;-63
2022/06/24 03:59:44;;;;;;;9.25;8.43;;;17.90;99.90;;;;;;5035618;28;20102;-63
2022/06/24 04:02:10;;;;;;;8.75;8.15;;;18.00;99.90;;;;;;5039190;28;20021;-63
2022/06/24 04:04:35;;;;;;;8.27;7.68;;;18.10;99.90;;;;;;5038895;28;20497;-63
2022/06/24 04:07:01;;;;;;;8.80;7.93;;;18.20;99.90;;;;;;5038018;28;20491;-62
2022/06/24 04:09:27;;;;;;;9.27;8.32;;;18.30;99.90;;;;;;5037955;28;20545;-62
2022/06/24 04:11:52;;;;;;;8.52;7.82;;;18.40;99.90;;;;;;5036396;28;20025;-63
2022/06/24 04:17:03;;;;;;;12.65;10.45;;;18.40;99.90;;;;;;5042431;28;20036;-63
2022/06/24 04:19:29;;;;;;;21.40;9.85;;;18.40;99.90;;;;;;5036432;28;20025;-63
2022/06/24 04:21:55;;;;;;;12.68;10.23;;;18.40;99.90;;;;;;5036709;28;20037;-63
2022/06/24 04:24:20;;;;;;;10.65;9.77;;;18.40;99.90;;;;;;5033607;28;20153;-63
2022/06/24 04:26:46;;;;;;;12.13;9.77;;;18.40;99.90;;;;;;5036489;28;20049;-63
2022/06/24 04:29:11;;;;;;;10.93;9.30;;;18.50;99.90;;;;;;5038158;28;20025;-64
2022/06/24 04:31:39;;;;;;;12.98;10.02;;;18.60;99.90;;;;;;5039748;28;20049;-63
2022/06/24 04:34:05;;;;;;;10.15;9.38;;;18.60;99.90;;;;;;5033556;28;20566;-63
2022/06/24 04:36:30;;;;;;;12.13;8.95;;;18.70;99.90;;;;;;5035595;28;20116;-63
2022/06/24 04:38:56;;;;;;;10.23;9.45;;;18.90;99.90;;;;;;5035231;28;20060;-63
2022/06/24 04:41:22;;;;;;;10.30;9.50;;;19.10;99.90;;;;;;5035217;28;20103;-64
2022/06/24 04:43:47;;;;;;;14.02;8.73;;;19.50;99.90;;;;;;5038517;28;20052;-63
2022/06/24 04:46:13;;;;;;;9.00;8.30;;;19.90;99.90;;;;;;5041073;28;20425;-64
2022/06/24 04:48:38;;;;;;;8.57;7.82;;;20.20;99.90;;;;;;5037181;28;20501;-63
2022/06/24 04:51:04;;;;;;;10.10;7.72;;;20.50;99.90;;;;;;5041897;28;20052;-63
2022/06/24 04:53:30;;;;;;;8.80;8.05;;;20.60;99.90;;;;;;5040671;28;20099;-64
2022/06/24 04:55:57;;;;;;;8.05;7.43;;;20.70;99.90;;;;;;5024811;28;20135;-64
2022/06/24 04:58:22;;;;;;;7.78;7.28;;;20.70;99.90;;;;;;5051373;28;20030;-63
2022/06/24 05:00:48;;;;;;;9.75;7.40;;;20.70;99.90;;;;;;5039875;28;20445;-64
2022/06/24 05:03:14;;;;;;;7.88;7.32;;;20.80;99.90;;;;;;5043219;28;20029;-64
2022/06/24 05:05:39;;;;;;;8.63;6.93;;;20.80;99.90;;;;;;5042263;28;20413;-64
2022/06/24 05:08:08;;;;;;;8.10;7.30;;;20.90;99.90;;;;;;5041320;28;20036;-68
2022/06/24 05:10:34;;;;;;;8.05;7.45;;;20.80;99.90;;;;;;5038276;28;20151;-63
2022/06/24 05:12:59;;;;;;;8.40;7.60;;;20.70;99.90;;;;;;5029548;28;20222;-64
2022/06/24 05:15:25;;;;;;;7.25;6.75;;;20.70;99.90;;;;;;5041400;28;20040;-63
2022/06/24 05:17:51;;;;;;;8.20;7.55;;;20.70;99.90;;;;;;5040921;28;20029;-63
2022/06/24 05:20:17;;;;;;;8.40;7.38;;;20.70;99.90;;;;;;5039605;28;20024;-64
2022/06/24 05:22:43;;;;;;;8.48;7.85;;;20.70;99.90;;;;;;5039973;28;20024;-64
2022/06/24 05:25:08;;;;;;;8.63;7.85;;;20.70;99.90;;;;;;5030757;28;20037;-64
2022/06/24 05:27:34;;;;;;;7.68;6.72;;;20.80;99.90;;;;;;5041444;28;20056;-64
2022/06/24 05:30:00;;;;;;;7.50;6.82;;;20.80;99.90;;;;;;5042605;28;20188;-64
2022/06/24 05:32:26;;;;;;;8.27;7.40;;;20.80;99.90;;;;;;5040529;28;20397;-64
2022/06/24 05:34:52;;;;;;;8.07;6.85;;;20.80;99.90;;;;;;5036758;28;20029;-63
2022/06/24 05:37:17;;;;;;;8.52;6.55;;;20.80;99.90;;;;;;5034810;28;20029;-63
2022/06/24 05:39:44;;;;;;;7.22;6.70;;;20.80;99.90;;;;;;5039492;28;20033;-63
2022/06/24 05:42:10;;;;;;;8.02;7.35;;;20.80;99.90;;;;;;5036614;28;20397;-62
2022/06/24 05:44:35;;;;;;;7.53;6.93;;;20.80;99.90;;;;;;5042232;28;20030;-61
2022/06/24 05:47:01;;;;;;;7.55;7.00;;;20.90;99.90;;;;;;5040828;28;20029;-62
2022/06/24 05:49:27;;;;;;;7.75;7.15;;;21.00;99.90;;;;;;5024674;28;20557;-62
2022/06/24 05:51:52;;;;;;;8.43;7.78;;;21.00;99.90;;;;;;5041361;28;20039;-61
2022/06/24 05:57:02;;;;;;;8.55;7.80;;;21.00;99.90;;;;;;5040800;28;20044;-62
2022/06/24 05:59:28;;;;;;;8.25;7.75;;;21.00;99.90;;;;;;5051371;28;20026;-61
2022/06/24 06:01:54;;;;;;;8.25;7.45;;;21.00;99.90;;;;;;5041569;28;20045;-64
2022/06/24 06:04:19;;;;;;;10.77;8.50;;;21.00;99.90;;;;;;5038915;28;20074;-64
2022/06/24 06:06:45;;;;;;;9.48;8.68;;;20.90;99.90;;;;;;5037670;28;20037;-64
2022/06/24 06:09:11;;;;;;;9.82;8.65;;;20.90;99.90;;;;;;5040892;28;20026;-65
2022/06/24 06:11:37;;;;;;;9.57;8.63;;;20.80;99.90;;;;;;5040103;28;20080;-65
2022/06/24 06:14:03;;;;;;;10.13;9.18;;;20.70;99.90;;;;;;5041226;28;20040;-65
2022/06/24 06:16:28;;;;;;;11.80;9.93;;;20.60;99.90;;;;;;5043479;28;20037;-65
2022/06/24 06:18:54;;;;;;;9.25;8.40;;;20.40;99.90;;;;;;5044200;28;20056;-65
2022/06/24 06:21:20;;;;;;;12.43;10.35;;;20.30;99.90;;;;;;5039376;28;20044;-65
2022/06/24 06:23:46;;;;;;;11.00;10.15;;;20.10;99.90;;;;;;5036917;28;20037;-65
2022/06/24 06:26:14;;;;;;;10.65;9.90;;;20.00;99.90;;;;;;5035728;28;20069;-66
2022/06/24 06:28:41;;;;;;;11.38;10.40;;;19.80;99.90;;;;;;5042000;28;20402;-65
2022/06/24 06:31:08;;;;;;;11.63;10.65;;;19.70;99.90;;;;;;5039159;28;20026;-65
2022/06/24 06:33:34;;;;;;;12.68;11.68;;;19.50;99.90;;;;;;5036864;28;20021;-65
2022/06/24 06:36:07;;;;;;;13.38;12.35;;;19.40;99.90;;;;;;5035524;28;20397;-65
2022/06/24 06:38:33;;;;;;;15.65;12.02;;;19.30;99.90;;;;;;5040393;28;20052;-66
2022/06/24 06:41:00;;;;;;;14.25;12.73;;;19.20;99.90;;;;;;5035861;28;20033;-66
2022/06/24 06:43:26;;;;;;;13.90;12.80;;;19.20;99.90;;;;;;5040783;28;20537;-65
2022/06/24 06:45:52;;;;;;;14.23;13.00;;;19.20;99.90;;;;;;5036885;28;20029;-65
2022/06/24 06:48:19;;;;;;;15.43;12.73;;;19.20;99.90;;;;;;5035328;28;20038;-65
2022/06/24 06:50:45;;;;;;;15.25;13.40;;;19.20;99.90;;;;;;5038489;28;20021;-65
2022/06/24 06:53:11;;;;;;;12.40;11.32;;;19.30;99.90;;;;;;5037461;28;20029;-66
2022/06/24 06:55:36;;;;;;;12.95;11.82;;;19.30;99.90;;;;;;5033709;28;20021;-65
2022/06/24 06:58:02;;;;;;;13.52;12.25;;;19.30;99.90;;;;;;5040034;28;20029;-65
2022/06/24 07:00:28;;;;;;;14.13;12.80;;;19.30;99.90;;;;;;5041203;28;20025;-65
2022/06/24 07:02:57;;;;;;;13.15;12.07;;;19.30;99.90;;;;;;5038008;28;20074;-65
2022/06/24 07:05:22;;;;;;;15.25;13.23;;;19.30;99.90;;;;;;5031402;28;20087;-65
2022/06/24 07:07:48;;;;;;;16.02;14.40;;;19.30;99.90;;;;;;5035959;28;20049;-65
2022/06/24 07:10:14;;;;;;;15.30;13.82;;;19.30;99.90;;;;;;5036329;28;20116;-65
2022/06/24 07:12:40;;;;;;;16.40;15.02;;;19.30;99.90;;;;;;5040392;28;20409;-65
2022/06/24 07:15:06;;;;;;;18.67;17.08;;;19.30;99.90;;;;;;5039884;28;20051;-65
2022/06/24 07:17:32;;;;;;;17.45;15.88;;;19.30;99.90;;;;;;5039555;28;20605;-64
2022/06/24 07:19:58;;;;;;;15.73;14.48;;;19.40;99.90;;;;;;5034992;28;20107;-64
2022/06/24 07:22:23;;;;;;;15.35;13.82;;;19.40;99.90;;;;;;5040582;28;20033;-65
2022/06/24 07:24:49;;;;;;;14.60;13.30;;;19.50;99.90;;;;;;5025726;28;20037;-65
2022/06/24 07:27:15;;;;;;;18.38;13.68;;;19.60;99.90;;;;;;5035528;28;20102;-65
2022/06/24 07:29:40;;;;;;;15.25;13.80;;;19.70;99.90;;;;;;5041554;28;20033;-65
2022/06/24 07:32:07;;;;;;;16.25;14.90;;;19.80;99.90;;;;;;5037852;28;20363;-65
2022/06/24 07:34:33;;;;;;;15.75;14.55;;;19.90;99.90;;;;;;5037054;28;20115;-65
2022/06/24 07:37:01;;;;;;;15.23;14.10;;;20.00;99.90;;;;;;5040009;28;20041;-64
2022/06/24 07:39:27;;;;;;;16.15;13.32;;;20.30;99.90;;;;;;5038995;28;20029;-65
2022/06/24 07:41:53;;;;;;;12.50;11.20;;;20.70;99.90;;;;;;5038916;28;20052;-65
2022/06/24 07:44:20;;;;;;;11.00;10.23;;;21.20;99.90;;;;;;5035738;28;20029;-66
2022/06/24 07:46:46;;;;;;;14.38;8.68;;;21.70;99.90;;;;;;5030586;28;20026;-65
2022/06/24 07:49:12;;;;;;;9.25;8.43;;;22.30;99.90;;;;;;5025242;28;20434;-65
2022/06/24 07:51:38;;;;;;;8.85;7.95;;;22.80;99.90;;;;;;5034894;28;20491;-65
2022/06/24 07:54:07;;;;;;;11.13;7.88;;;23.10;99.90;;;;;;5035007;28;20427;-64
2022/06/24 07:59:18;;;;;;;10.88;7.70;;;23.00;99.90;;;;;;5038688;28;20043;-65
2022/06/24 08:01:43;;;;;;;8.60;7.70;;;23.10;99.90;;;;;;5037202;28;20033;-65
2022/06/24 08:04:09;;;;;;;9.13;7.55;;;23.00;99.90;;;;;;5035002;28;20034;-64
2022/06/24 08:06:40;;;;;;;8.25;7.43;;;23.00;99.90;;;;;;5031420;28;20038;-65
2022/06/24 08:09:07;;;;;;;7.88;7.00;;;22.90;99.90;;;;;;5036933;28;20481;-65
2022/06/24 08:11:33;;;;;;;7.88;7.05;;;22.90;99.90;;;;;;5039931;28;20057;-65
2022/06/24 08:13:59;;;;;;;8.45;7.63;;;23.10;99.90;;;;;;5035709;28;20033;-65
2022/06/24 08:16:25;;;;;;;9.90;7.15;;;23.10;99.90;;;;;;5035718;28;20513;-65
2022/06/24 08:18:52;;;;;;;8.90;7.70;;;23.30;99.90;;;;;;5040079;28;20045;-64
2022/06/24 08:21:18;;;;;;;7.72;6.72;;;23.30;99.90;;;;;;5037042;28;20029;-64
2022/06/24 08:23:44;;;;;;;8.00;7.20;;;23.20;99.90;;;;;;5040780;28;20033;-65
2022/06/24 08:26:10;;;;;;;12.43;7.40;;;23.00;99.90;;;;;;5038406;28;20418;-65
2022/06/24 08:28:35;;;;;;;9.30;8.50;;;22.70;99.90;;;;;;5041155;28;20049;-65
2022/06/24 08:31:01;;;;;;;9.18;8.52;;;22.50;99.90;;;;;;5040820;28;20112;-65
2022/06/24 08:33:28;;;;;;;8.48;7.65;;;22.20;99.90;;;;;;5039466;28;20486;-64
2022/06/24 08:35:54;;;;;;;8.05;7.03;;;22.10;99.90;;;;;;5027994;28;20513;-65
2022/06/24 08:38:20;;;;;;;8.93;8.07;;;21.90;99.90;;;;;;5030161;28;20032;-65
2022/06/24 08:40:50;;;;;;;9.20;8.32;;;21.80;99.90;;;;;;5041709;28;20477;-64
2022/06/24 08:43:16;;;;;;;9.90;9.10;;;21.70;99.90;;;;;;5038660;28;20037;-65
2022/06/24 08:45:42;;;;;;;9.80;8.82;;;21.70;99.90;;;;;;5037313;28;20029;-64
2022/06/24 08:48:09;;;;;;;10.00;8.52;;;21.60;99.90;;;;;;5038641;28;20643;-64
2022/06/24 08:50:35;;;;;;;10.23;9.18;;;21.50;99.90;;;;;;5039271;28;20485;-65
2022/06/24 08:53:05;;;;;;;13.65;11.43;;;21.40;99.90;;;;;;5041410;28;20021;-64
2022/06/24 08:55:35;;;;;;;14.07;13.07;;;21.30;99.90;;;;;;5039231;28;20043;-65
2022/06/24 08:58:08;;;;;;;14.23;13.02;;;21.20;99.90;;;;;;5039853;28;20021;-64
2022/06/24 09:00:35;;;;;;;13.48;12.43;;;21.00;99.90;;;;;;5040874;28;20034;-64
2022/06/24 09:03:01;;;;;;;11.77;10.98;;;20.90;99.90;;;;;;5043350;28;20116;-64
2022/06/24 09:05:27;;;;;;;13.50;12.25;;;20.90;99.90;;;;;;5037330;28;20025;-65
2022/06/24 09:08:07;;;;;;;13.43;12.30;;;20.80;99.90;;;;;;5034460;28;20025;-64
2022/06/24 09:10:35;;;;;;;13.65;12.65;;;20.80;99.90;;;;;;5040153;28;20033;-64
2022/06/24 09:13:01;;;;;;;12.75;11.85;;;20.80;99.90;;;;;;5026339;28;20032;-64
2022/06/24 09:15:27;;;;;;;14.00;12.95;;;20.80;99.90;;;;;;5038661;28;20087;-65
2022/06/24 09:17:54;;;;;;;11.85;10.82;;;20.90;99.90;;;;;;5034646;28;20490;-64
2022/06/24 09:20:22;;;;;;;12.27;11.13;;;21.00;99.90;;;;;;5041815;28;20021;-64
2022/06/24 09:22:48;;;;;;;12.05;11.05;;;21.30;99.90;;;;;;5039107;28;20025;-65
2022/06/24 09:25:14;;;;;;;11.88;10.93;;;21.60;99.90;;;;;;5040654;28;20095;-65
2022/06/24 09:27:46;;;;;;;10.57;9.70;;;21.80;99.90;;;;;;5038428;28;20060;-64
2022/06/24 09:30:13;;;;;;;10.05;9.35;;;22.00;99.90;;;;;;5034352;28;20034;-65
2022/06/24 09:32:52;;;;;;;10.52;8.57;;;22.30;99.90;;;;;;5026154;28;20029;-65
2022/06/24 09:35:19;;;;;;;8.15;7.55;;;23.10;99.90;;;;;;5041685;28;20359;-64
2022/06/24 09:37:47;;;;;;;8.10;7.30;;;23.90;99.90;;;;;;5033592;28;20033;-64
2022/06/24 09:40:19;;;;;;;9.00;8.30;;;24.20;99.90;;;;;;5037307;28;20119;-65
2022/06/24 09:43:13;;;;;;;9.10;7.00;;;24.50;99.90;;;;;;5042949;28;20068;-65
2022/06/24 09:45:46;;;;;;;7.75;7.15;;;24.60;99.90;;;;;;5037863;28;20032;-65
2022/06/24 09:48:26;;;;;;;5.80;5.35;;;24.60;99.90;;;;;;5043979;28;20080;-65
2022/06/24 09:50:54;;;;;;;7.20;5.77;;;24.20;99.90;;;;;;5038558;28;20394;-65
2022/06/24 09:53:21;;;;;;;8.20;7.30;;;24.60;99.90;;;;;;5041486;28;20017;-65
2022/06/24 09:55:47;;;;;;;6.13;5.50;;;25.10;99.90;;;;;;5039369;28;20033;-65
2022/06/24 09:58:13;;;;;;;8.55;7.90;;;25.60;99.90;;;;;;5038399;28;20090;-64
2022/06/24 10:00:40;;;;;;;8.38;7.70;;;25.80;98.90;;;;;;5040993;28;20438;-65
2022/06/24 10:03:11;;;;;;;10.95;8.00;;;25.50;98.20;;;;;;5039089;28;20157;-65
2022/06/24 10:05:40;;;;;;;6.88;6.32;;;25.50;99.90;;;;;;5041860;28;20060;-65
2022/06/24 10:08:09;;;;;;;5.78;5.28;;;25.40;97.90;;;;;;5038012;28;20157;-65
2022/06/24 10:10:36;;;;;;;6.90;6.35;;;25.50;96.90;;;;;;5034931;28;20729;-65
2022/06/24 10:13:08;;;;;;;7.82;6.03;;;25.80;98.20;;;;;;5035495;28;20037;-65
2022/06/24 10:15:34;;;;;;;5.97;5.43;;;26.70;96.60;;;;;;5035867;28;20048;-65
2022/06/24 10:18:06;;;;;;;6.35;5.18;;;27.50;93.50;;;;;;5041049;28;20037;-66
2022/06/24 10:20:32;;;;;;;6.50;5.63;;;28.60;85.70;;;;;;5035815;28;20030;-65
2022/06/24 10:22:58;;;;;;;5.10;4.60;;;28.70;82.90;;;;;;5040862;28;20030;-65
2022/06/24 10:25:49;;;;;;;4.88;4.03;;;29.00;79.70;;;;;;5033977;28;20112;-65
2022/06/24 10:28:15;;;;;;;5.18;4.68;;;29.00;80.00;;;;;;5040036;28;20111;-65
2022/06/24 10:30:41;;;;;;;6.95;6.30;;;28.20;78.60;;;;;;5038593;28;20068;-65
2022/06/24 10:33:20;;;;;;;6.18;5.57;;;27.30;81.00;;;;;;5039237;28;20035;-65
2022/06/24 10:36:01;;;;;;;6.60;5.13;;;26.90;84.90;;;;;;5038691;28;20060;-65
2022/06/24 10:38:34;;;;;;;;;;;26.30;86.60;;;;;;5038231;28;20025;-65
2022/06/24 10:41:02;;;;;;;7.05;4.95;;;26.10;88.30;;;;;;5039776;28;20372;-65
2022/06/24 10:43:46;;;;;;;5.38;4.82;;;25.90;89.20;;;;;;5041480;28;20025;-65
2022/06/24 10:46:11;;;;;;;5.00;4.50;;;25.60;91.80;;;;;;5036901;28;20112;-65
2022/06/24 10:48:49;;;;;;;4.65;4.20;;;25.50;91.60;;;;;;5040247;28;20137;-64
2022/06/24 10:51:22;;;;;;;7.07;4.97;;;25.60;92.10;;;;;;5036508;28;20038;-65
2022/06/24 10:54:03;;;;;;;5.45;4.88;;;25.90;92.80;;;;;;5039707;28;20048;-65
2022/06/24 10:56:45;;;;;;;4.05;3.58;;;26.00;91.30;;;;;;5043407;28;20107;-65
2022/06/24 10:59:13;;;;;;;6.30;3.50;;;26.30;91.20;;;;;;5031691;28;20092;-65
2022/06/24 11:01:42;;;;;;;4.93;3.33;;;26.20;89.10;;;;;;5026458;28;20123;-64
2022/06/24 11:04:11;;;;;;;4.35;3.63;;;26.00;89.10;;;;;;5039955;28;20123;-65
2022/06/24 11:06:37;;;;;;;3.97;3.22;;;26.30;90.70;;;;;;5035344;28;20494;-65
2022/06/24 11:09:08;;;;;;;3.22;2.85;;;26.60;88.00;;;;;;5036000;28;20042;-64
2022/06/24 11:11:35;;;;;;;8.88;2.75;;;26.60;86.20;;;;;;5037897;28;20025;-65
2022/06/24 11:14:20;;;;;;;3.15;2.10;;;26.60;84.30;;;;;;5035559;28;20029;-65
2022/06/24 11:16:46;;;;;;;4.45;2.00;;;26.40;84.70;;;;;;5019120;28;20052;-64
2022/06/24 11:19:12;;;;;;;2.28;1.30;;;26.50;82.90;;;;;;5037886;28;20525;-65
2022/06/24 11:21:51;;;;;;;2.47;1.27;;;26.50;81.70;;;;;;5023200;28;20065;-65
2022/06/24 11:24:19;;;;;;;6.78;1.42;;;26.40;79.30;;;;;;5040156;28;20033;-65
2022/06/24 11:27:08;;;;;;;5.35;1.35;;;26.20;78.90;;;;;;5052505;28;20372;-65
2022/06/24 11:29:50;;;;;;;3.70;1.33;;;26.30;79.40;;;;;;5033473;28;20033;-65
2022/06/24 11:32:16;;;;;;;3.78;1.55;;;26.10;79.40;;;;;;5036334;28;20022;-65
2022/06/24 11:34:44;;;;;;;3.03;2.30;;;26.20;80.30;;;;;;5037668;28;20026;-65
2022/06/24 11:37:09;;;;;;;3.17;2.25;;;26.30;83.50;;;;;;5037580;28;20490;-65
2022/06/24 11:39:35;;;;;;;3.17;2.53;;;26.70;82.90;;;;;;5033957;28;20034;-65
2022/06/24 11:42:01;;;;;;;6.68;4.47;;;27.00;83.20;;;;;;5039467;28;20033;-64
2022/06/24 11:44:37;;;;;;;7.68;5.63;;;27.20;83.30;;;;;;5041593;28;20040;-65
2022/06/24 11:47:05;;;;;;;6.70;5.10;;;27.00;83.70;;;;;;5050484;28;20032;-64
2022/06/24 11:49:33;;;;;;;5.85;5.05;;;26.90;83.90;;;;;;5038604;28;20025;-65
2022/06/24 11:51:59;;;;;;;5.47;4.20;;;26.40;84.40;;;;;;5032818;28;20478;-65
2022/06/24 11:54:27;;;;;;;5.20;3.88;;;26.00;86.00;;;;;;5019426;28;20028;-65
2022/06/24 11:56:54;;;;;;;6.22;3.97;;;25.90;86.20;;;;;;5035677;28;20053;-65
2022/06/24 11:59:21;;;;;;;5.28;4.45;;;26.00;85.50;;;;;;5033272;28;20017;-65
2022/06/24 12:01:48;;;;;;;4.43;2.80;;;26.00;83.70;;;;;;5034955;28;20116;-65
2022/06/24 12:04:15;;;;;;;4.47;3.90;;;26.10;85.40;;;;;;5026986;28;20025;-65
2022/06/24 12:06:42;;;;;;;5.18;3.53;;;26.00;84.90;;;;;;5035321;28;20490;-65
2022/06/24 12:09:09;;;;;;;6.38;2.75;;;26.00;84.30;;;;;;5039260;28;20036;-65
2022/06/24 12:11:40;;;;;;;3.28;2.35;;;26.00;83.20;;;;;;5035713;28;20025;-65
2022/06/24 12:14:12;;;;;;;5.57;2.55;;;25.90;83.60;;;;;;5034954;28;20030;-65
2022/06/24 12:16:54;;;;;;;6.72;2.53;;;26.30;82.00;;;;;;5040089;28;20041;-64
2022/06/24 12:19:22;;;;;;;3.83;2.30;;;26.60;81.50;;;;;;5042505;28;20071;-65
2022/06/24 12:21:47;;;;;;;3.45;2.00;;;26.90;80.30;;;;;;5033486;28;20541;-65
2022/06/24 12:24:24;;;;;;;4.75;2.47;;;27.00;78.00;;;;;;5037526;28;20029;-65
2022/06/24 12:26:58;;;;;;;9.20;3.38;;;27.00;78.10;;;;;;5033761;28;20037;-65
2022/06/24 12:29:27;;;;;;;7.13;2.88;;;26.60;78.60;;;;;;5034959;28;20032;-65
2022/06/24 12:31:53;;;;;;;4.35;2.58;;;26.40;78.60;;;;;;5034916;28;20085;-65
2022/06/24 12:34:25;;;;;;;4.57;2.90;;;26.00;81.70;;;;;;5051295;28;20060;-65
2022/06/24 12:36:56;;;;;;;7.55;2.80;;;26.10;83.20;;;;;;5037120;28;20052;-65
2022/06/24 12:39:32;;;;;;;4.53;2.60;;;26.40;81.00;;;;;;5022926;28;20381;-65
2022/06/24 12:41:58;;;;;;;6.15;2.63;;;26.50;79.60;;;;;;5032591;28;20029;-65
2022/06/24 12:44:28;;;;;;;3.10;2.05;;;26.80;80.50;;;;;;5037237;28;20159;-65
2022/06/24 12:52:36;;;;;;;3.72;1.67;;;26.60;77.60;;;;;;5039952;28;20033;-65
2022/06/24 12:55:04;;;;;;;4.55;1.67;;;26.60;76.90;;;;;;5038126;28;20063;-65
2022/06/24 12:57:29;;;;;;;3.88;1.58;;;26.90;76.10;;;;;;5036137;28;20026;-65
2022/06/24 12:59:55;;;;;;;3.92;1.80;;;26.80;75.00;;;;;;5034867;28;20103;-65